Terminal Aerodrome Forecast
Issued by NWS

Current Version | Previous Version | Text Only | Print | Product List | Glossary On
Versions: 1 2 3 4 5 6 7 8 9 10 11 12 13 14 15
789
FTUS44 KLZK 282320
TAFLLQ
TAF
KLLQ 282320Z 2900/2924 28008KT P6SM VCTS SCT040 BKN080CB
      TEMPO 2901/2904 5SM -TSRA BKN040CB
     FM290400 VRB05KT P6SM BKN040 BKN100
     FM291200 VRB05KT P6SM SCT040 BKN100
     FM291800 01008KT P6SM SCT100 SCT250=

USA.gov is the U.S. government's official web portal to all federal, state and local government web resources and services.